createdAt,value
2022-10-01T00:01:31.896Z,94.30
2022-10-01T00:04:01.219Z,94.40
2022-10-01T00:06:30.142Z,94.50
2022-10-01T00:08:59.411Z,94.50
2022-10-01T00:11:28.417Z,94.60
2022-10-01T00:13:59.756Z,94.70
2022-10-01T00:16:29.957Z,94.70
2022-10-01T00:19:00.625Z,94.80
2022-10-01T00:21:31.949Z,94.90
2022-10-01T00:24:03.395Z,95.00
2022-10-01T00:26:33.941Z,95.00
2022-10-01T00:29:06.690Z,95.00
2022-10-01T00:31:35.683Z,95.10
2022-10-01T00:34:05.130Z,95.10
2022-10-01T00:36:34.945Z,95.10
2022-10-01T00:39:03.752Z,95.10
2022-10-01T00:41:35.584Z,95.10
2022-10-01T00:44:30.628Z,95.10
2022-10-01T00:47:03.129Z,95.30
2022-10-01T00:49:34.201Z,95.30
2022-10-01T00:52:26.438Z,95.40
2022-10-01T00:54:58.972Z,95.50
2022-10-01T00:57:29.072Z,95.60
2022-10-01T01:00:02.812Z,95.70
2022-10-01T01:02:31.731Z,95.80
2022-10-01T01:05:00.905Z,95.90
2022-10-01T01:07:31.131Z,96.10
2022-10-01T01:10:01.965Z,96.20
2022-10-01T01:12:47.671Z,96.20
2022-10-01T01:15:22.732Z,96.20
2022-10-01T01:17:57.612Z,96.20
2022-10-01T01:20:54.864Z,96.40
2022-10-01T01:23:44.085Z,96.40
2022-10-01T01:26:24.831Z,96.50
2022-10-01T01:28:59.266Z,96.50
2022-10-01T01:31:34.081Z,96.60
2022-10-01T01:34:07.135Z,96.70
2022-10-01T01:36:59.072Z,96.70
2022-10-01T01:39:32.950Z,96.80
2022-10-01T01:42:06.625Z,96.90
2022-10-01T01:44:41.199Z,97.00
2022-10-01T01:47:11.961Z,97.10
2022-10-01T01:49:42.304Z,97.20
2022-10-01T01:52:13.674Z,97.20
2022-10-01T01:54:44.631Z,97.30
2022-10-01T01:57:14.779Z,97.30
2022-10-01T01:59:45.143Z,97.30
2022-10-01T02:02:16.029Z,97.30
2022-10-01T02:04:48.527Z,97.30
2022-10-01T02:07:55.445Z,97.20
2022-10-01T02:10:37.135Z,97.40
2022-10-01T02:13:20.576Z,97.50
2022-10-01T02:16:01.522Z,97.70
2022-10-01T02:18:36.418Z,97.70
2022-10-01T02:21:14.067Z,97.80
2022-10-01T02:23:49.378Z,97.90
2022-10-01T02:26:22.173Z,98.10
2022-10-01T02:29:13.894Z,98.20
2022-10-01T02:31:44.677Z,98.20
2022-10-01T02:34:20.017Z,98.30
2022-10-01T02:36:50.297Z,98.40
2022-10-01T02:39:39.711Z,98.50
2022-10-01T02:42:10.236Z,98.40
2022-10-01T02:44:42.879Z,98.50
2022-10-01T02:47:19.768Z,98.50
2022-10-01T02:49:49.393Z,98.50
2022-10-01T02:52:27.667Z,98.60
2022-10-01T02:55:00.917Z,98.70
2022-10-01T02:57:29.199Z,98.70
2022-10-01T03:00:00.151Z,98.80
2022-10-01T03:02:33.302Z,98.80
2022-10-01T03:05:02.575Z,98.80
2022-10-01T03:07:32.522Z,98.80
2022-10-01T03:10:01.404Z,98.80
2022-10-01T03:12:30.185Z,98.80
2022-10-01T03:14:58.876Z,98.80
2022-10-01T03:17:27.837Z,98.80
2022-10-01T03:19:58.060Z,98.70
2022-10-01T03:22:27.014Z,98.70
2022-10-01T03:24:55.993Z,98.60
2022-10-01T03:27:24.938Z,98.60
2022-10-01T03:29:54.020Z,98.60
2022-10-01T03:32:22.760Z,98.60
2022-10-01T03:34:51.434Z,98.70
2022-10-01T03:37:21.664Z,98.70
2022-10-01T03:39:50.451Z,98.80
2022-10-01T03:42:19.185Z,98.80
2022-10-01T03:44:48.333Z,99.00
2022-10-01T03:47:17.171Z,99.10
2022-10-01T03:49:45.820Z,99.10
2022-10-01T03:52:14.625Z,99.20
2022-10-01T03:54:44.873Z,99.20
2022-10-01T03:57:13.787Z,99.50
2022-10-01T03:59:42.843Z,99.30
2022-10-01T04:02:11.584Z,99.50
2022-10-01T04:04:40.539Z,99.70
2022-10-01T04:07:09.306Z,99.90
2022-10-01T04:09:38.955Z,99.90
2022-10-01T04:12:27.480Z,99.90
2022-10-01T04:14:56.194Z,99.90
2022-10-01T04:17:45.966Z,99.90
2022-10-01T04:20:15.103Z,99.90
2022-10-01T04:22:45.437Z,99.90
2022-10-01T04:25:14.977Z,99.90
2022-10-01T04:27:56.937Z,99.90
2022-10-01T04:30:26.477Z,99.80
2022-10-01T04:32:55.121Z,99.90
2022-10-01T04:35:24.628Z,99.90
2022-10-01T04:37:59.460Z,99.90
2022-10-01T04:40:28.166Z,99.90
2022-10-01T04:42:59.267Z,99.90
2022-10-01T04:45:28.584Z,99.90
2022-10-01T04:47:58.701Z,99.90
2022-10-01T04:50:28.621Z,99.90
2022-10-01T04:52:57.391Z,99.90
2022-10-01T04:55:26.459Z,99.90
2022-10-01T04:57:55.967Z,99.90
2022-10-01T05:00:27.083Z,99.90
2022-10-01T05:02:56.260Z,99.90
2022-10-01T05:05:28.325Z,99.90
2022-10-01T05:07:57.108Z,99.90
2022-10-01T05:10:44.753Z,99.90
2022-10-01T05:13:14.080Z,99.90
2022-10-01T05:15:44.988Z,99.90
2022-10-01T05:18:13.816Z,99.90
2022-10-01T05:20:42.482Z,99.90
2022-10-01T05:23:11.287Z,99.90
2022-10-01T05:25:40.043Z,99.90
2022-10-01T05:28:08.953Z,99.90
2022-10-01T05:30:37.680Z,99.90
2022-10-01T05:33:07.924Z,99.90
2022-10-01T05:35:36.760Z,99.90
2022-10-01T05:38:05.529Z,99.90
2022-10-01T05:40:34.386Z,99.90
2022-10-01T05:43:04.595Z,99.90
2022-10-01T05:45:34.051Z,99.90
2022-10-01T05:48:04.577Z,99.90
2022-10-01T05:50:39.487Z,99.90
2022-10-01T05:53:09.141Z,99.90
2022-10-01T05:55:37.955Z,99.90
2022-10-01T05:58:09.970Z,99.90
2022-10-01T06:00:40.220Z,99.90
2022-10-01T06:03:09.510Z,99.90
2022-10-01T06:05:40.010Z,99.90
2022-10-01T06:08:09.939Z,99.90
2022-10-01T06:10:38.948Z,99.90
2022-10-01T06:13:08.126Z,99.90
2022-10-01T06:15:38.726Z,99.90
2022-10-01T06:18:09.392Z,99.90
2022-10-01T06:20:40.932Z,99.90
2022-10-01T06:23:12.697Z,99.90
2022-10-01T06:25:42.988Z,99.90
2022-10-01T06:28:15.876Z,99.90
2022-10-01T06:30:44.775Z,99.90
2022-10-01T06:33:14.689Z,99.90
2022-10-01T06:35:47.224Z,99.90
2022-10-01T06:38:17.293Z,99.90
2022-10-01T06:40:46.216Z,99.90
2022-10-01T06:43:14.941Z,99.90
2022-10-01T06:45:43.770Z,99.90
2022-10-01T06:48:15.413Z,99.90
2022-10-01T06:50:46.995Z,99.90
2022-10-01T06:53:18.794Z,99.90
2022-10-01T06:55:47.754Z,99.90
2022-10-01T06:58:18.045Z,99.60
2022-10-01T07:00:47.179Z,99.20
2022-10-01T07:03:18.505Z,98.80
2022-10-01T07:05:49.573Z,98.50
2022-10-01T07:08:19.060Z,98.10
2022-10-01T07:10:52.293Z,97.90
2022-10-01T07:13:21.883Z,97.50
2022-10-01T07:15:50.672Z,97.30
2022-10-01T07:18:19.368Z,96.90
2022-10-01T07:20:49.491Z,96.60
2022-10-01T07:23:18.621Z,96.20
2022-10-01T07:25:47.571Z,95.90
2022-10-01T07:28:18.571Z,95.70
2022-10-01T07:30:49.011Z,95.40
2022-10-01T07:33:20.315Z,95.10
2022-10-01T07:35:50.478Z,94.90
2022-10-01T07:38:38.041Z,94.60
2022-10-01T07:41:07.226Z,94.20
2022-10-01T07:43:36.807Z,93.80
2022-10-01T07:46:07.414Z,93.60
2022-10-01T07:48:36.102Z,93.30
2022-10-01T07:51:06.438Z,92.80
2022-10-01T07:53:35.184Z,92.20
2022-10-01T07:56:04.658Z,91.90
2022-10-01T07:58:33.421Z,91.50
2022-10-01T08:01:05.720Z,91.20
2022-10-01T08:03:34.722Z,90.90
2022-10-01T08:06:03.790Z,90.70
2022-10-01T08:08:34.210Z,90.40
2022-10-01T08:11:21.463Z,90.00
2022-10-01T08:13:50.210Z,88.90
2022-10-01T08:16:19.233Z,88.10
2022-10-01T08:18:48.036Z,86.90
2022-10-01T08:21:16.743Z,85.80
2022-10-01T08:23:46.850Z,84.40
2022-10-01T08:26:15.660Z,82.70
2022-10-01T08:28:44.331Z,81.80
2022-10-01T08:31:13.190Z,80.80
2022-10-01T08:33:42.088Z,79.00
2022-10-01T08:36:10.805Z,76.70
2022-10-01T08:38:40.908Z,74.60
2022-10-01T08:41:25.747Z,72.80
2022-10-01T08:43:55.623Z,71.10
2022-10-01T08:46:29.427Z,69.50
2022-10-01T08:49:04.464Z,68.10
2022-10-01T08:51:39.855Z,66.70
2022-10-01T08:54:21.979Z,65.70
2022-10-01T08:56:54.860Z,64.10
2022-10-01T08:59:36.650Z,63.80
2022-10-01T09:02:19.453Z,63.20
2022-10-01T09:05:15.339Z,62.30
2022-10-01T09:07:58.751Z,61.80
2022-10-01T09:10:43.606Z,61.00
2022-10-01T09:13:34.347Z,60.60
2022-10-01T09:16:14.018Z,59.50
2022-10-01T09:18:55.868Z,58.80
2022-10-01T09:21:39.138Z,58.00
2022-10-01T09:24:15.485Z,57.10
2022-10-01T09:26:49.505Z,57.30
2022-10-01T09:29:28.158Z,56.80
2022-10-01T09:31:58.525Z,55.70
2022-10-01T09:34:34.343Z,55.20
2022-10-01T09:37:28.301Z,54.50
2022-10-01T09:40:07.172Z,53.70
2022-10-01T09:42:36.254Z,53.20
2022-10-01T09:45:07.633Z,52.90
2022-10-01T09:47:36.396Z,52.40
2022-10-01T09:50:06.804Z,51.90
2022-10-01T09:52:38.151Z,51.40
2022-10-01T09:55:12.172Z,50.60
2022-10-01T09:58:04.861Z,49.80
2022-10-01T10:00:35.478Z,49.20
2022-10-01T10:03:04.668Z,48.00
2022-10-01T10:05:43.401Z,47.20
2022-10-01T10:08:17.024Z,45.40
2022-10-01T10:10:53.166Z,43.30
2022-10-01T10:13:32.486Z,42.40
2022-10-01T10:16:11.076Z,40.80
2022-10-01T10:18:41.598Z,39.50
2022-10-01T10:21:18.305Z,38.50
2022-10-01T10:23:51.924Z,38.20
2022-10-01T10:26:23.021Z,37.00
2022-10-01T10:28:52.155Z,36.60
2022-10-01T10:31:25.566Z,36.20
2022-10-01T10:33:57.877Z,35.20
2022-10-01T10:36:30.547Z,34.60
2022-10-01T10:39:00.516Z,34.10
2022-10-01T10:41:31.293Z,33.70
2022-10-01T10:44:04.685Z,33.60
2022-10-01T10:46:39.216Z,33.20
2022-10-01T10:49:21.558Z,33.40
2022-10-01T10:51:54.307Z,32.70
2022-10-01T10:54:33.417Z,32.90
2022-10-01T10:57:04.716Z,33.10
2022-10-01T10:59:35.256Z,32.80
2022-10-01T11:02:07.608Z,32.80
2022-10-01T11:04:42.948Z,32.70
2022-10-01T11:07:14.966Z,32.70
2022-10-01T11:10:26.398Z,32.80
2022-10-01T11:13:08.586Z,32.90
2022-10-01T11:15:58.407Z,33.20
2022-10-01T11:18:50.042Z,33.20
2022-10-01T11:21:48.691Z,33.30
2022-10-01T11:24:41.231Z,33.10
2022-10-01T11:27:15.937Z,33.60
2022-10-01T11:29:56.336Z,33.50
2022-10-01T11:32:34.961Z,33.80
2022-10-01T11:35:45.905Z,34.40
2022-10-01T11:38:51.346Z,35.20
2022-10-01T11:41:31.318Z,35.00
2022-10-01T11:44:05.461Z,35.10
2022-10-01T11:46:44.436Z,34.90
2022-10-01T11:49:35.062Z,34.90
2022-10-01T11:52:19.266Z,35.40
2022-10-01T11:55:37.598Z,36.30
2022-10-01T11:58:33.365Z,37.10
2022-10-01T12:01:09.650Z,37.60
2022-10-01T12:03:51.355Z,37.70
2022-10-01T12:06:25.668Z,37.90
2022-10-01T12:09:07.021Z,38.30
2022-10-01T12:11:42.005Z,38.60
2022-10-01T12:14:18.048Z,38.20
2022-10-01T12:16:52.858Z,38.10
2022-10-01T12:19:25.259Z,38.50
2022-10-01T12:22:00.420Z,37.80
2022-10-01T12:24:34.962Z,38.40
2022-10-01T12:27:28.296Z,38.70
2022-10-01T12:30:03.987Z,39.00
2022-10-01T12:32:48.177Z,39.30
2022-10-01T12:35:35.885Z,39.00
2022-10-01T12:38:18.503Z,39.30
2022-10-01T12:40:55.767Z,39.60
2022-10-01T12:43:48.428Z,39.00
2022-10-01T12:46:28.137Z,38.50
2022-10-01T12:49:08.263Z,38.40
2022-10-01T12:51:44.436Z,37.90
2022-10-01T12:54:42.096Z,37.80
2022-10-01T12:57:24.858Z,37.60
2022-10-01T13:00:19.341Z,37.10
2022-10-01T13:03:15.798Z,36.80
2022-10-01T13:05:55.922Z,36.40
2022-10-01T13:08:45.953Z,36.60
2022-10-01T13:11:28.646Z,36.20
2022-10-01T13:14:01.154Z,36.20
2022-10-01T13:16:34.293Z,35.90
2022-10-01T13:19:08.803Z,35.70
2022-10-01T13:21:54.672Z,35.70
2022-10-01T13:24:29.569Z,35.90
2022-10-01T13:27:04.743Z,36.20
2022-10-01T13:29:48.722Z,36.10
2022-10-01T13:32:30.328Z,35.50
2022-10-01T13:35:00.359Z,35.60
2022-10-01T13:37:38.333Z,35.90
2022-10-01T13:40:25.207Z,35.90
2022-10-01T13:42:55.166Z,35.80
2022-10-01T13:45:42.984Z,35.80
2022-10-01T13:48:20.567Z,35.80
2022-10-01T13:50:59.420Z,36.10
2022-10-01T13:53:30.093Z,36.10
2022-10-01T13:55:59.408Z,36.20
2022-10-01T13:58:38.562Z,36.40
2022-10-01T14:01:31.712Z,36.50
2022-10-01T14:04:07.217Z,36.60
2022-10-01T14:06:47.103Z,36.90
2022-10-01T14:09:20.299Z,37.20
2022-10-01T14:12:10.369Z,37.20
2022-10-01T14:14:59.054Z,37.20
2022-10-01T14:17:32.867Z,37.60
2022-10-01T14:20:26.179Z,38.10
2022-10-01T14:23:10.382Z,38.50
2022-10-01T14:25:51.435Z,39.00
2022-10-01T14:28:38.810Z,39.50
2022-10-01T14:31:14.506Z,39.70
2022-10-01T14:33:57.426Z,40.10
2022-10-01T14:36:32.811Z,40.30
2022-10-01T14:39:07.145Z,40.10
2022-10-01T14:41:36.229Z,40.10
2022-10-01T14:44:25.447Z,40.40
2022-10-01T14:46:55.971Z,40.60
2022-10-01T14:49:30.401Z,40.70
2022-10-01T14:52:02.994Z,41.80
2022-10-01T14:54:39.022Z,41.20
2022-10-01T14:57:32.280Z,41.30
2022-10-01T15:00:08.303Z,41.30
2022-10-01T15:02:45.580Z,41.20
2022-10-01T15:05:23.505Z,41.10
2022-10-01T15:07:52.881Z,41.20
2022-10-01T15:10:24.202Z,41.10
2022-10-01T15:12:55.350Z,41.60
2022-10-01T15:15:29.672Z,41.60
2022-10-01T15:17:58.630Z,41.60
2022-10-01T15:20:29.179Z,41.70
2022-10-01T15:23:01.430Z,42.10
2022-10-01T15:25:32.811Z,42.50
2022-10-01T15:28:32.169Z,42.80
2022-10-01T15:31:03.454Z,43.40
2022-10-01T15:33:34.538Z,44.00
2022-10-01T15:36:06.910Z,44.50
2022-10-01T15:38:36.497Z,45.00
2022-10-01T15:41:30.671Z,45.40
2022-10-01T15:44:47.326Z,46.00
2022-10-01T15:47:33.182Z,46.70
2022-10-01T15:50:19.332Z,47.40
2022-10-01T15:52:54.611Z,48.00
2022-10-01T15:55:32.596Z,48.50
2022-10-01T15:58:08.436Z,49.30
2022-10-01T16:00:44.978Z,49.60
2022-10-01T16:03:23.527Z,49.90
2022-10-01T16:05:55.242Z,50.30
2022-10-01T16:08:34.424Z,50.30
2022-10-01T16:11:28.063Z,50.80
2022-10-01T16:14:22.477Z,51.20
2022-10-01T16:16:52.006Z,51.50
2022-10-01T16:19:29.650Z,52.00
2022-10-01T16:22:22.983Z,52.40
2022-10-01T16:24:54.979Z,52.60
2022-10-01T16:27:26.400Z,53.20
2022-10-01T16:30:01.322Z,53.60
2022-10-01T16:32:33.689Z,54.00
2022-10-01T16:35:21.935Z,54.30
2022-10-01T16:37:53.784Z,55.00
2022-10-01T16:40:26.221Z,55.10
2022-10-01T16:42:55.512Z,55.40
2022-10-01T16:45:27.034Z,55.60
2022-10-01T16:47:57.873Z,55.90
2022-10-01T16:50:27.903Z,56.30
2022-10-01T16:53:01.522Z,56.40
2022-10-01T16:55:37.199Z,56.60
2022-10-01T16:58:07.192Z,56.90
2022-10-01T17:00:37.341Z,56.90
2022-10-01T17:03:09.240Z,57.10
2022-10-01T17:05:56.940Z,57.40
2022-10-01T17:08:25.993Z,57.50
2022-10-01T17:10:59.398Z,57.60
2022-10-01T17:13:29.212Z,57.80
2022-10-01T17:15:58.969Z,58.00
2022-10-01T17:18:27.784Z,58.30
2022-10-01T17:20:57.512Z,58.60
2022-10-01T17:23:26.622Z,59.20
2022-10-01T17:25:57.021Z,59.40
2022-10-01T17:28:25.907Z,59.90
2022-10-01T17:30:54.625Z,60.00
2022-10-01T17:33:25.223Z,60.30
2022-10-01T17:35:55.881Z,60.50
2022-10-01T17:38:26.029Z,61.00
2022-10-01T17:40:56.923Z,61.30
2022-10-01T17:43:44.458Z,61.70
2022-10-01T17:46:13.408Z,62.10
2022-10-01T17:48:42.881Z,62.30
2022-10-01T17:51:16.177Z,62.60
2022-10-01T17:53:45.168Z,62.90
2022-10-01T17:56:17.952Z,63.10
2022-10-01T17:58:47.708Z,63.40
2022-10-01T18:01:20.066Z,63.50
2022-10-01T18:03:49.329Z,63.70
2022-10-01T18:06:18.078Z,63.90
2022-10-01T18:08:56.038Z,64.20
2022-10-01T18:11:27.922Z,64.20
2022-10-01T18:13:57.028Z,64.40
2022-10-01T18:16:26.611Z,64.50
2022-10-01T18:21:49.236Z,64.30
2022-10-01T18:24:18.608Z,64.10
2022-10-01T18:26:49.104Z,63.90
2022-10-01T18:29:21.782Z,63.70
2022-10-01T18:31:56.127Z,63.70
2022-10-01T18:34:31.898Z,63.50
2022-10-01T18:37:06.285Z,63.30
2022-10-01T18:39:41.213Z,63.20
2022-10-01T18:42:18.292Z,62.70
2022-10-01T18:44:52.272Z,62.50
2022-10-01T18:47:34.427Z,62.30
2022-10-01T18:50:30.001Z,62.10
2022-10-01T18:53:12.219Z,61.90
2022-10-01T18:56:10.229Z,61.80
2022-10-01T18:58:58.429Z,61.60
2022-10-01T19:01:57.413Z,61.60
2022-10-01T19:05:05.558Z,61.40
2022-10-01T19:07:48.557Z,61.40
2022-10-01T19:10:27.046Z,61.50
2022-10-01T19:13:05.787Z,61.50
2022-10-01T19:15:49.609Z,61.50
2022-10-01T19:18:47.419Z,61.60
2022-10-01T19:21:26.598Z,61.70
2022-10-01T19:24:24.639Z,61.50
2022-10-01T19:27:05.206Z,61.50
2022-10-01T19:29:57.804Z,61.40
2022-10-01T19:32:37.305Z,61.50
2022-10-01T19:35:13.571Z,61.60
2022-10-01T19:37:48.308Z,61.70
2022-10-01T19:40:27.713Z,61.90
2022-10-01T19:43:04.223Z,62.20
2022-10-01T19:45:44.789Z,62.30
2022-10-01T19:48:21.383Z,62.40
2022-10-01T19:50:56.299Z,62.90
2022-10-01T19:53:29.873Z,63.20
2022-10-01T19:56:01.814Z,63.20
2022-10-01T19:58:32.512Z,63.30
2022-10-01T20:01:04.132Z,63.40
2022-10-01T20:03:39.937Z,63.60
2022-10-01T20:06:19.800Z,63.60
2022-10-01T20:08:53.781Z,63.70
2022-10-01T20:11:30.780Z,64.00
2022-10-01T20:14:44.353Z,64.20
2022-10-01T20:17:20.877Z,64.00
2022-10-01T20:19:58.108Z,64.00
2022-10-01T20:22:35.172Z,64.10
2022-10-01T20:25:11.902Z,64.00
2022-10-01T20:27:49.631Z,64.10
2022-10-01T20:30:20.440Z,64.20
2022-10-01T20:33:13.464Z,64.30
2022-10-01T20:35:51.633Z,64.30
2022-10-01T20:38:24.140Z,64.20
2022-10-01T20:40:56.840Z,64.30
2022-10-01T20:43:32.538Z,64.30
2022-10-01T20:46:10.304Z,64.40
2022-10-01T20:48:43.978Z,64.50
2022-10-01T20:51:19.321Z,64.60
2022-10-01T20:53:54.569Z,64.70
2022-10-01T20:56:26.745Z,65.00
2022-10-01T20:59:00.747Z,65.20
2022-10-01T21:01:32.350Z,65.20
2022-10-01T21:04:06.295Z,65.30
2022-10-01T21:06:40.953Z,65.40
2022-10-01T21:09:16.684Z,65.60
2022-10-01T21:11:51.007Z,65.50
2022-10-01T21:14:25.245Z,65.60
2022-10-01T21:17:20.928Z,65.70
2022-10-01T21:20:18.406Z,65.80
2022-10-01T21:23:04.213Z,65.80
2022-10-01T21:25:41.121Z,66.10
2022-10-01T21:28:20.476Z,66.30
2022-10-01T21:31:03.782Z,66.50
2022-10-01T21:33:54.215Z,66.70
2022-10-01T21:36:29.187Z,67.00
2022-10-01T21:39:07.015Z,67.30
2022-10-01T21:42:01.874Z,67.60
2022-10-01T21:45:02.878Z,67.80
2022-10-01T21:47:44.089Z,67.90
2022-10-01T21:50:23.965Z,68.00
2022-10-01T21:53:10.965Z,68.00
2022-10-01T21:55:59.336Z,68.30
2022-10-01T21:58:39.360Z,68.40
2022-10-01T22:01:17.387Z,68.50
2022-10-01T22:03:51.004Z,68.60
2022-10-01T22:06:29.235Z,68.80
2022-10-01T22:09:24.146Z,68.90
2022-10-01T22:11:58.683Z,69.00
2022-10-01T22:14:28.818Z,69.00
2022-10-01T22:16:59.134Z,69.00
2022-10-01T22:19:31.267Z,68.80
2022-10-01T22:22:06.120Z,68.80
2022-10-01T22:24:40.331Z,68.90
2022-10-01T22:27:14.783Z,68.80
2022-10-01T22:29:49.356Z,68.70
2022-10-01T22:32:21.063Z,68.40
2022-10-01T22:34:56.509Z,69.00
2022-10-01T22:37:32.149Z,68.20
2022-10-01T22:40:07.925Z,68.00
2022-10-01T22:42:42.848Z,67.90
2022-10-01T22:45:15.967Z,67.80
2022-10-01T22:47:59.576Z,67.80
2022-10-01T22:50:57.299Z,67.80
2022-10-01T22:53:43.438Z,67.90
2022-10-01T22:56:19.426Z,67.80
2022-10-01T22:59:01.972Z,68.10
2022-10-01T23:01:38.487Z,67.70
2022-10-01T23:04:21.885Z,67.60
2022-10-01T23:07:02.012Z,67.80
2022-10-01T23:09:36.808Z,68.00
2022-10-01T23:12:12.691Z,68.00
2022-10-01T23:14:55.560Z,68.10
2022-10-01T23:17:30.159Z,67.80
2022-10-01T23:20:12.618Z,67.70
2022-10-01T23:22:54.320Z,67.50
2022-10-01T23:25:40.288Z,67.60
2022-10-01T23:28:22.519Z,67.60
2022-10-01T23:31:08.185Z,67.60
2022-10-01T23:33:49.503Z,67.30
2022-10-01T23:36:40.016Z,67.10
2022-10-01T23:39:32.064Z,66.90
2022-10-01T23:42:11.036Z,66.70
2022-10-01T23:44:48.629Z,66.70
2022-10-01T23:47:25.459Z,66.60
2022-10-01T23:50:00.407Z,66.40
2022-10-01T23:52:41.728Z,66.20
2022-10-01T23:55:38.821Z,65.90
2022-10-01T23:58:12.121Z,65.40
